sensor_id;sensor_type;location;lat;lon;timestamp;P1;durP1;ratioP1;P2;durP2;ratioP2
23768;SDS011;12064;50.890;5.424;2022-08-03T00:02:34;3.90;;;1.70;;
23768;SDS011;12064;50.890;5.424;2022-08-03T00:11:25;3.43;;;1.77;;
23768;SDS011;12064;50.890;5.424;2022-08-03T00:20:16;3.08;;;1.70;;
23768;SDS011;12064;50.890;5.424;2022-08-03T00:29:06;2.35;;;1.60;;
23768;SDS011;12064;50.890;5.424;2022-08-03T00:37:57;3.73;;;1.97;;
23768;SDS011;12064;50.890;5.424;2022-08-03T00:46:48;2.20;;;1.48;;
23768;SDS011;12064;50.890;5.424;2022-08-03T00:55:41;3.83;;;1.50;;
23768;SDS011;12064;50.890;5.424;2022-08-03T01:04:32;3.58;;;1.80;;
23768;SDS011;12064;50.890;5.424;2022-08-03T01:31:52;3.92;;;1.55;;
23768;SDS011;12064;50.890;5.424;2022-08-03T01:40:51;3.88;;;1.77;;
23768;SDS011;12064;50.890;5.424;2022-08-03T01:49:43;3.53;;;1.90;;
23768;SDS011;12064;50.890;5.424;2022-08-03T01:58:35;2.42;;;1.60;;
23768;SDS011;12064;50.890;5.424;2022-08-03T02:07:27;3.25;;;1.70;;
23768;SDS011;12064;50.890;5.424;2022-08-03T02:16:19;2.60;;;1.50;;
23768;SDS011;12064;50.890;5.424;2022-08-03T02:25:12;2.95;;;1.65;;
23768;SDS011;12064;50.890;5.424;2022-08-03T02:34:08;2.90;;;1.80;;
23768;SDS011;12064;50.890;5.424;2022-08-03T02:43:04;3.35;;;1.65;;
23768;SDS011;12064;50.890;5.424;2022-08-03T02:52:02;2.08;;;1.80;;
23768;SDS011;12064;50.890;5.424;2022-08-03T03:00:58;2.92;;;1.60;;
23768;SDS011;12064;50.890;5.424;2022-08-03T03:09:52;2.42;;;1.70;;
23768;SDS011;12064;50.890;5.424;2022-08-03T03:18:44;4.45;;;1.80;;
23768;SDS011;12064;50.890;5.424;2022-08-03T03:27:37;4.72;;;1.77;;
23768;SDS011;12064;50.890;5.424;2022-08-03T03:36:28;4.00;;;1.80;;
23768;SDS011;12064;50.890;5.424;2022-08-03T03:45:28;3.15;;;1.85;;
23768;SDS011;12064;50.890;5.424;2022-08-03T03:54:20;3.25;;;1.70;;
23768;SDS011;12064;50.890;5.424;2022-08-03T04:03:32;2.22;;;1.58;;
23768;SDS011;12064;50.890;5.424;2022-08-03T04:12:23;4.57;;;1.58;;
23768;SDS011;12064;50.890;5.424;2022-08-03T04:21:20;3.15;;;1.48;;
23768;SDS011;12064;50.890;5.424;2022-08-03T04:30:15;2.88;;;1.63;;
23768;SDS011;12064;50.890;5.424;2022-08-03T04:48:53;6.40;;;2.08;;
23768;SDS011;12064;50.890;5.424;2022-08-03T04:57:44;5.45;;;1.88;;
23768;SDS011;12064;50.890;5.424;2022-08-03T05:06:35;4.80;;;1.90;;
23768;SDS011;12064;50.890;5.424;2022-08-03T05:15:26;3.83;;;2.00;;
23768;SDS011;12064;50.890;5.424;2022-08-03T05:24:17;4.00;;;1.80;;
23768;SDS011;12064;50.890;5.424;2022-08-03T05:42:02;5.97;;;2.00;;
23768;SDS011;12064;50.890;5.424;2022-08-03T05:50:59;4.15;;;1.85;;
23768;SDS011;12064;50.890;5.424;2022-08-03T05:59:49;2.65;;;1.80;;
23768;SDS011;12064;50.890;5.424;2022-08-03T06:08:41;3.78;;;1.80;;
23768;SDS011;12064;50.890;5.424;2022-08-03T06:17:32;2.70;;;1.85;;
23768;SDS011;12064;50.890;5.424;2022-08-03T06:26:26;3.03;;;1.80;;
23768;SDS011;12064;50.890;5.424;2022-08-03T06:35:17;2.35;;;1.65;;
23768;SDS011;12064;50.890;5.424;2022-08-03T06:44:08;2.50;;;1.77;;
23768;SDS011;12064;50.890;5.424;2022-08-03T06:52:59;2.67;;;1.75;;
23768;SDS011;12064;50.890;5.424;2022-08-03T07:01:51;1.70;;;1.60;;
23768;SDS011;12064;50.890;5.424;2022-08-03T07:10:42;2.03;;;1.83;;
23768;SDS011;12064;50.890;5.424;2022-08-03T07:19:33;2.10;;;1.90;;
23768;SDS011;12064;50.890;5.424;2022-08-03T07:28:24;2.30;;;1.70;;
23768;SDS011;12064;50.890;5.424;2022-08-03T07:37:14;2.37;;;1.97;;
23768;SDS011;12064;50.890;5.424;2022-08-03T07:46:06;2.28;;;1.80;;
23768;SDS011;12064;50.890;5.424;2022-08-03T07:54:57;2.40;;;1.75;;
23768;SDS011;12064;50.890;5.424;2022-08-03T08:03:51;1.80;;;1.63;;
23768;SDS011;12064;50.890;5.424;2022-08-03T08:12:45;1.98;;;1.80;;
23768;SDS011;12064;50.890;5.424;2022-08-03T08:21:35;3.33;;;1.90;;
23768;SDS011;12064;50.890;5.424;2022-08-03T08:30:26;2.00;;;1.80;;
23768;SDS011;12064;50.890;5.424;2022-08-03T08:39:18;1.90;;;1.80;;
23768;SDS011;12064;50.890;5.424;2022-08-03T08:48:11;2.08;;;1.88;;
23768;SDS011;12064;50.890;5.424;2022-08-03T08:57:03;1.88;;;1.77;;
23768;SDS011;12064;50.890;5.424;2022-08-03T09:05:59;2.00;;;1.90;;
23768;SDS011;12064;50.890;5.424;2022-08-03T09:14:51;1.85;;;1.73;;
23768;SDS011;12064;50.890;5.424;2022-08-03T09:23:45;1.87;;;1.77;;
23768;SDS011;12064;50.890;5.424;2022-08-03T09:32:41;2.20;;;2.00;;
23768;SDS011;12064;50.890;5.424;2022-08-03T09:41:33;2.22;;;2.03;;
23768;SDS011;12064;50.890;5.424;2022-08-03T09:50:24;1.60;;;1.50;;
23768;SDS011;12064;50.890;5.424;2022-08-03T09:59:28;1.80;;;1.70;;
23768;SDS011;12064;50.890;5.424;2022-08-03T10:08:20;1.90;;;1.80;;
23768;SDS011;12064;50.890;5.424;2022-08-03T10:17:11;1.90;;;1.80;;
23768;SDS011;12064;50.890;5.424;2022-08-03T10:26:06;1.90;;;1.70;;
23768;SDS011;12064;50.890;5.424;2022-08-03T10:35:03;2.00;;;1.90;;
23768;SDS011;12064;50.890;5.424;2022-08-03T10:44:02;1.70;;;1.60;;
23768;SDS011;12064;50.890;5.424;2022-08-03T11:01:50;1.83;;;1.73;;
23768;SDS011;12064;50.890;5.424;2022-08-03T11:10:46;2.08;;;1.98;;
23768;SDS011;12064;50.890;5.424;2022-08-03T11:19:44;2.10;;;1.92;;
23768;SDS011;12064;50.890;5.424;2022-08-03T11:28:42;2.05;;;1.85;;
23768;SDS011;12064;50.890;5.424;2022-08-03T11:46:57;2.22;;;2.10;;
23768;SDS011;12064;50.890;5.424;2022-08-03T11:55:49;2.00;;;1.90;;
23768;SDS011;12064;50.890;5.424;2022-08-03T12:04:51;1.90;;;1.80;;
23768;SDS011;12064;50.890;5.424;2022-08-03T12:13:47;2.22;;;2.13;;
23768;SDS011;12064;50.890;5.424;2022-08-03T12:22:40;2.00;;;1.90;;
23768;SDS011;12064;50.890;5.424;2022-08-03T12:31:30;2.10;;;2.00;;
23768;SDS011;12064;50.890;5.424;2022-08-03T12:40:29;2.30;;;2.10;;
23768;SDS011;12064;50.890;5.424;2022-08-03T12:49:23;1.90;;;1.80;;
23768;SDS011;12064;50.890;5.424;2022-08-03T12:58:27;2.20;;;2.00;;
23768;SDS011;12064;50.890;5.424;2022-08-03T13:07:22;1.75;;;1.65;;
23768;SDS011;12064;50.890;5.424;2022-08-03T13:16:13;1.87;;;1.77;;
23768;SDS011;12064;50.890;5.424;2022-08-03T13:25:04;1.65;;;1.55;;
23768;SDS011;12064;50.890;5.424;2022-08-03T13:33:55;1.80;;;1.70;;
23768;SDS011;12064;50.890;5.424;2022-08-03T13:42:45;2.00;;;1.80;;
23768;SDS011;12064;50.890;5.424;2022-08-03T13:51:36;2.10;;;1.93;;
23768;SDS011;12064;50.890;5.424;2022-08-03T14:00:27;1.60;;;1.50;;
23768;SDS011;12064;50.890;5.424;2022-08-03T14:09:17;1.80;;;1.70;;
23768;SDS011;12064;50.890;5.424;2022-08-03T14:18:08;1.60;;;1.50;;
23768;SDS011;12064;50.890;5.424;2022-08-03T14:26:59;1.65;;;1.55;;
23768;SDS011;12064;50.890;5.424;2022-08-03T14:35:50;1.70;;;1.60;;
23768;SDS011;12064;50.890;5.424;2022-08-03T14:44:41;1.52;;;1.42;;
23768;SDS011;12064;50.890;5.424;2022-08-03T14:53:35;1.60;;;1.50;;
23768;SDS011;12064;50.890;5.424;2022-08-03T15:02:25;1.58;;;1.48;;
23768;SDS011;12064;50.890;5.424;2022-08-03T15:11:18;1.65;;;1.55;;
23768;SDS011;12064;50.890;5.424;2022-08-03T15:20:09;1.63;;;1.52;;
23768;SDS011;12064;50.890;5.424;2022-08-03T15:29:00;1.50;;;1.40;;
23768;SDS011;12064;50.890;5.424;2022-08-03T15:37:51;1.48;;;1.38;;
23768;SDS011;12064;50.890;5.424;2022-08-03T15:46:42;1.40;;;1.30;;
23768;SDS011;12064;50.890;5.424;2022-08-03T15:55:32;1.20;;;1.20;;
23768;SDS011;12064;50.890;5.424;2022-08-03T16:04:23;1.50;;;1.40;;
23768;SDS011;12064;50.890;5.424;2022-08-03T16:13:14;1.37;;;1.37;;
23768;SDS011;12064;50.890;5.424;2022-08-03T16:31:00;1.50;;;1.40;;
23768;SDS011;12064;50.890;5.424;2022-08-03T16:49:04;1.85;;;1.40;;
23768;SDS011;12064;50.890;5.424;2022-08-03T16:57:55;2.27;;;2.10;;
23768;SDS011;12064;50.890;5.424;2022-08-03T17:06:45;2.23;;;2.03;;
23768;SDS011;12064;50.890;5.424;2022-08-03T17:15:39;1.93;;;1.80;;
23768;SDS011;12064;50.890;5.424;2022-08-03T17:34:01;1.75;;;1.65;;
23768;SDS011;12064;50.890;5.424;2022-08-03T17:42:53;1.77;;;1.67;;
23768;SDS011;12064;50.890;5.424;2022-08-03T17:52:04;1.63;;;1.50;;
23768;SDS011;12064;50.890;5.424;2022-08-03T18:01:00;2.00;;;1.60;;
23768;SDS011;12064;50.890;5.424;2022-08-03T18:10:14;1.50;;;1.40;;
23768;SDS011;12064;50.890;5.424;2022-08-03T18:19:08;1.77;;;1.63;;
23768;SDS011;12064;50.890;5.424;2022-08-03T18:28:00;1.50;;;1.40;;
23768;SDS011;12064;50.890;5.424;2022-08-03T18:36:57;1.52;;;1.42;;
23768;SDS011;12064;50.890;5.424;2022-08-03T18:45:51;1.20;;;1.20;;
23768;SDS011;12064;50.890;5.424;2022-08-03T19:04:03;1.35;;;1.20;;
23768;SDS011;12064;50.890;5.424;2022-08-03T19:13:03;2.10;;;1.33;;
23768;SDS011;12064;50.890;5.424;2022-08-03T19:22:01;1.83;;;1.38;;
23768;SDS011;12064;50.890;5.424;2022-08-03T19:30:53;1.30;;;1.30;;
23768;SDS011;12064;50.890;5.424;2022-08-03T19:39:46;1.45;;;1.35;;
23768;SDS011;12064;50.890;5.424;2022-08-03T19:57:54;2.70;;;1.25;;
23768;SDS011;12064;50.890;5.424;2022-08-03T20:15:46;1.10;;;1.00;;
23768;SDS011;12064;50.890;5.424;2022-08-03T20:24:37;1.23;;;1.13;;
23768;SDS011;12064;50.890;5.424;2022-08-03T20:33:31;1.20;;;1.05;;
23768;SDS011;12064;50.890;5.424;2022-08-03T20:42:25;1.38;;;1.13;;
23768;SDS011;12064;50.890;5.424;2022-08-03T20:51:16;1.03;;;1.00;;
23768;SDS011;12064;50.890;5.424;2022-08-03T21:00:10;1.00;;;1.00;;
23768;SDS011;12064;50.890;5.424;2022-08-03T21:09:08;1.13;;;1.02;;
23768;SDS011;12064;50.890;5.424;2022-08-03T21:18:10;1.65;;;1.08;;
23768;SDS011;12064;50.890;5.424;2022-08-03T21:27:02;1.58;;;1.13;;
23768;SDS011;12064;50.890;5.424;2022-08-03T21:35:56;1.48;;;1.10;;
23768;SDS011;12064;50.890;5.424;2022-08-03T21:44:53;1.63;;;0.90;;
23768;SDS011;12064;50.890;5.424;2022-08-03T21:53:44;1.37;;;1.00;;
23768;SDS011;12064;50.890;5.424;2022-08-03T22:11:51;1.13;;;1.00;;
23768;SDS011;12064;50.890;5.424;2022-08-03T22:20:51;1.23;;;0.95;;
23768;SDS011;12064;50.890;5.424;2022-08-03T22:29:42;2.55;;;1.02;;
23768;SDS011;12064;50.890;5.424;2022-08-03T22:38:33;1.50;;;1.30;;
23768;SDS011;12064;50.890;5.424;2022-08-03T22:47:26;1.10;;;1.00;;
23768;SDS011;12064;50.890;5.424;2022-08-03T22:56:31;2.28;;;1.13;;
23768;SDS011;12064;50.890;5.424;2022-08-03T23:05:22;1.20;;;1.10;;
23768;SDS011;12064;50.890;5.424;2022-08-03T23:14:15;1.17;;;1.08;;
23768;SDS011;12064;50.890;5.424;2022-08-03T23:23:08;0.90;;;0.90;;
23768;SDS011;12064;50.890;5.424;2022-08-03T23:32:05;0.90;;;0.90;;
23768;SDS011;12064;50.890;5.424;2022-08-03T23:40:57;0.93;;;0.93;;
23768;SDS011;12064;50.890;5.424;2022-08-03T23:49:49;1.25;;;1.10;;
